createdAt,value
2023-06-10T00:01:41.630Z,9.93
2023-06-10T00:04:08.221Z,10.40
2023-06-10T00:06:37.526Z,11.32
2023-06-10T00:09:05.927Z,10.85
2023-06-10T00:11:33.612Z,10.55
2023-06-10T00:14:00.912Z,11.10
2023-06-10T00:16:27.735Z,11.25
2023-06-10T00:18:56.685Z,11.48
2023-06-10T00:21:23.289Z,11.60
2023-06-10T00:23:50.690Z,11.68
2023-06-10T00:26:17.376Z,11.90
2023-06-10T00:28:45.875Z,12.00
2023-06-10T00:31:12.497Z,11.65
2023-06-10T00:33:38.979Z,11.45
2023-06-10T00:36:05.594Z,11.63
2023-06-10T00:38:32.891Z,11.48
2023-06-10T00:40:59.322Z,11.68
2023-06-10T00:43:25.870Z,11.45
2023-06-10T00:45:52.997Z,10.88
2023-06-10T00:48:19.756Z,11.48
2023-06-10T00:50:47.721Z,11.65
2023-06-10T00:53:14.335Z,12.07
2023-06-10T00:55:42.065Z,11.55
2023-06-10T00:58:08.994Z,11.27
2023-06-10T01:00:35.612Z,12.05
2023-06-10T01:03:02.168Z,11.68
2023-06-10T01:05:28.696Z,12.38
2023-06-10T01:08:08.242Z,12.35
2023-06-10T01:10:40.690Z,12.07
2023-06-10T01:13:09.364Z,13.50
2023-06-10T01:15:36.468Z,13.20
2023-06-10T01:18:09.820Z,13.35
2023-06-10T01:20:40.883Z,13.35
2023-06-10T01:23:08.034Z,13.98
2023-06-10T01:25:45.225Z,13.85
2023-06-10T01:28:32.368Z,14.30
2023-06-10T01:31:43.088Z,14.60
2023-06-10T01:34:15.382Z,14.02
2023-06-10T01:36:42.461Z,14.07
2023-06-10T01:39:10.016Z,13.77
2023-06-10T01:41:36.700Z,15.77
2023-06-10T01:44:03.723Z,14.82
2023-06-10T01:46:30.302Z,14.35
2023-06-10T01:48:57.039Z,14.40
2023-06-10T01:51:23.493Z,15.25
2023-06-10T01:53:50.070Z,15.45
2023-06-10T01:56:19.026Z,15.02
2023-06-10T01:58:45.711Z,15.60
2023-06-10T02:01:12.502Z,14.40
2023-06-10T02:03:39.132Z,15.63
2023-06-10T02:06:05.783Z,15.38
2023-06-10T02:08:32.232Z,15.98
2023-06-10T02:10:58.676Z,15.43
2023-06-10T02:13:25.120Z,16.77
2023-06-10T02:15:51.560Z,15.95
2023-06-10T02:18:21.597Z,16.05
2023-06-10T02:20:48.114Z,16.48
2023-06-10T02:23:14.806Z,18.00
2023-06-10T02:25:41.355Z,16.73
2023-06-10T02:28:08.086Z,17.25
2023-06-10T02:30:34.575Z,16.27
2023-06-10T02:33:02.259Z,16.73
2023-06-10T02:35:28.797Z,16.20
2023-06-10T02:37:55.335Z,16.00
2023-06-10T02:40:21.884Z,17.00
2023-06-10T02:42:48.321Z,17.00
2023-06-10T02:45:15.228Z,17.45
2023-06-10T02:47:42.674Z,16.73
2023-06-10T02:50:09.659Z,16.67
2023-06-10T02:52:36.167Z,17.25
2023-06-10T02:55:02.626Z,16.40
2023-06-10T02:57:29.060Z,16.25
2023-06-10T02:59:55.672Z,15.38
2023-06-10T03:02:22.666Z,16.40
2023-06-10T03:04:51.728Z,16.67
2023-06-10T03:07:19.757Z,16.63
2023-06-10T03:09:46.242Z,17.55
2023-06-10T03:12:12.831Z,17.25
2023-06-10T03:14:39.813Z,15.63
2023-06-10T03:17:07.145Z,15.98
2023-06-10T03:19:34.591Z,17.75
2023-06-10T03:22:11.148Z,17.13
2023-06-10T03:24:40.932Z,16.38
2023-06-10T03:27:08.706Z,15.95
2023-06-10T03:29:35.221Z,16.15
2023-06-10T03:32:02.155Z,15.50
2023-06-10T03:34:28.698Z,14.95
2023-06-10T03:36:55.146Z,15.20
2023-06-10T03:39:21.626Z,15.18
2023-06-10T03:41:48.099Z,14.77
2023-06-10T03:44:14.930Z,15.20
2023-06-10T03:46:41.444Z,14.82
2023-06-10T03:49:08.225Z,14.73
2023-06-10T03:51:36.787Z,15.23
2023-06-10T03:54:03.411Z,13.98
2023-06-10T03:56:30.035Z,13.80
2023-06-10T03:58:56.850Z,13.82
2023-06-10T04:01:24.444Z,13.38
2023-06-10T04:03:52.425Z,13.93
2023-06-10T04:06:18.950Z,14.30
2023-06-10T04:08:45.893Z,13.32
2023-06-10T04:11:12.355Z,13.30
2023-06-10T04:13:38.891Z,13.15
2023-06-10T04:16:05.789Z,13.65
2023-06-10T04:18:32.245Z,12.38
2023-06-10T04:20:58.691Z,13.20
2023-06-10T04:23:25.658Z,12.75
2023-06-10T04:25:52.129Z,12.95
2023-06-10T04:28:18.598Z,13.15
2023-06-10T04:30:46.003Z,13.15
2023-06-10T04:33:12.469Z,12.68
2023-06-10T04:35:38.925Z,13.73
2023-06-10T04:38:05.432Z,13.20
2023-06-10T04:40:31.935Z,13.07
2023-06-10T04:42:58.372Z,13.93
2023-06-10T04:45:24.872Z,13.05
2023-06-10T04:47:51.436Z,12.77
2023-06-10T04:50:17.980Z,12.18
2023-06-10T04:52:45.549Z,12.68
2023-06-10T04:55:12.499Z,11.45
2023-06-10T04:57:39.012Z,12.23
2023-06-10T05:00:07.228Z,11.30
2023-06-10T05:02:33.957Z,10.93
2023-06-10T05:05:00.603Z,11.68
2023-06-10T05:07:27.119Z,12.05
2023-06-10T05:09:53.588Z,12.38
2023-06-10T05:12:20.037Z,11.55
2023-06-10T05:14:47.162Z,11.18
2023-06-10T05:17:14.059Z,11.80
2023-06-10T05:19:40.823Z,9.90
2023-06-10T05:22:07.573Z,8.95
2023-06-10T05:24:34.100Z,9.27
2023-06-10T05:27:00.560Z,8.35
2023-06-10T05:29:27.200Z,9.18
2023-06-10T05:31:53.788Z,8.77
2023-06-10T05:34:20.518Z,9.05
2023-06-10T05:36:47.304Z,8.95
2023-06-10T05:39:13.752Z,7.63
2023-06-10T05:41:40.298Z,7.95
2023-06-10T05:44:06.754Z,9.10
2023-06-10T05:46:33.467Z,8.25
2023-06-10T05:48:59.980Z,7.65
2023-06-10T05:51:26.808Z,6.47
2023-06-10T05:53:53.356Z,7.50
2023-06-10T05:56:19.824Z,7.20
2023-06-10T05:58:46.389Z,7.07
2023-06-10T06:01:12.926Z,6.82
2023-06-10T06:03:39.590Z,5.93
2023-06-10T06:06:06.398Z,6.40
2023-06-10T06:08:33.010Z,7.55
2023-06-10T06:10:59.661Z,6.25
2023-06-10T06:13:26.165Z,6.45
2023-06-10T06:15:52.835Z,7.15
2023-06-10T06:18:19.826Z,6.20
2023-06-10T06:20:46.401Z,6.18
2023-06-10T06:23:12.863Z,6.03
2023-06-10T06:25:40.103Z,6.22
2023-06-10T06:28:10.900Z,5.68
2023-06-10T06:30:37.491Z,5.30
2023-06-10T06:33:04.520Z,6.30
2023-06-10T06:35:33.076Z,5.57
2023-06-10T06:37:59.948Z,5.40
2023-06-10T06:40:26.567Z,5.78
2023-06-10T06:42:53.031Z,5.07
2023-06-10T06:45:19.525Z,5.13
2023-06-10T06:47:46.033Z,5.25
2023-06-10T06:50:12.651Z,6.22
2023-06-10T06:52:39.213Z,5.47
2023-06-10T06:55:06.294Z,5.22
2023-06-10T06:57:33.102Z,5.47
2023-06-10T06:59:59.606Z,5.15
2023-06-10T07:02:26.066Z,5.32
2023-06-10T07:04:52.659Z,4.97
2023-06-10T07:07:19.300Z,4.90
2023-06-10T07:09:45.728Z,5.15
2023-06-10T07:12:12.187Z,5.25
2023-06-10T07:14:38.658Z,4.60
2023-06-10T07:17:05.320Z,4.90
2023-06-10T07:19:31.867Z,4.72
2023-06-10T07:21:58.338Z,5.00
2023-06-10T07:24:24.782Z,4.47
2023-06-10T07:26:51.732Z,4.72
2023-06-10T07:29:18.213Z,5.07
2023-06-10T07:31:44.666Z,4.70
2023-06-10T07:34:11.204Z,4.53
2023-06-10T07:36:37.667Z,5.50
2023-06-10T07:39:04.142Z,4.97
2023-06-10T07:41:30.616Z,4.60
2023-06-10T07:43:57.190Z,5.03
2023-06-10T07:46:24.664Z,5.30
2023-06-10T07:48:51.222Z,5.57
2023-06-10T07:51:17.970Z,5.50
2023-06-10T07:53:44.473Z,4.78
2023-06-10T07:56:11.091Z,5.30
2023-06-10T07:58:37.559Z,5.45
2023-06-10T08:01:04.038Z,4.57
2023-06-10T08:03:30.550Z,4.78
2023-06-10T08:05:57.122Z,4.15
2023-06-10T08:08:23.558Z,5.20
2023-06-10T08:10:50.848Z,5.32
2023-06-10T08:13:17.409Z,4.68
2023-06-10T08:15:43.834Z,4.78
2023-06-10T08:18:10.432Z,5.30
2023-06-10T08:20:36.955Z,4.93
2023-06-10T08:23:03.448Z,5.00
2023-06-10T08:25:30.377Z,4.45
2023-06-10T08:27:58.563Z,4.38
2023-06-10T08:30:25.007Z,5.30
2023-06-10T08:32:52.895Z,4.90
2023-06-10T08:35:19.386Z,4.93
2023-06-10T08:37:45.852Z,5.03
2023-06-10T08:40:12.876Z,4.55
2023-06-10T08:42:52.803Z,4.50
2023-06-10T08:45:19.906Z,5.40
2023-06-10T08:47:49.755Z,5.00
2023-06-10T08:50:17.652Z,4.90
2023-06-10T08:52:45.658Z,4.57
2023-06-10T08:55:16.199Z,4.40
2023-06-10T08:57:43.723Z,4.32
2023-06-10T09:00:11.400Z,4.15
2023-06-10T09:02:39.185Z,4.53
2023-06-10T09:05:06.768Z,4.63
2023-06-10T09:07:35.434Z,5.22
2023-06-10T09:10:04.008Z,4.30
2023-06-10T09:12:30.910Z,4.60
2023-06-10T09:14:57.379Z,4.90
2023-06-10T09:17:23.855Z,4.90
2023-06-10T09:19:51.443Z,5.53
2023-06-10T09:22:17.892Z,5.20
2023-06-10T09:24:44.332Z,4.78
2023-06-10T09:27:10.820Z,4.65
2023-06-10T09:29:54.502Z,5.30
2023-06-10T09:32:21.608Z,5.10
2023-06-10T09:34:48.722Z,5.00
2023-06-10T09:37:21.837Z,5.13
2023-06-10T09:40:10.261Z,4.80
2023-06-10T09:42:39.193Z,5.10
2023-06-10T09:45:07.170Z,4.75
2023-06-10T09:47:33.792Z,4.70
2023-06-10T09:50:00.974Z,4.78
2023-06-10T09:52:30.286Z,5.22
2023-06-10T09:55:02.149Z,5.18
2023-06-10T09:57:36.764Z,5.40
2023-06-10T10:00:09.254Z,4.88
2023-06-10T10:02:50.490Z,5.22
2023-06-10T10:05:18.701Z,5.90
2023-06-10T10:07:46.066Z,5.18
2023-06-10T10:10:14.427Z,5.72
2023-06-10T10:12:41.615Z,5.40
2023-06-10T10:15:09.709Z,5.22
2023-06-10T10:18:07.736Z,5.78
2023-06-10T10:20:35.555Z,5.35
2023-06-10T10:23:04.419Z,6.15
2023-06-10T10:25:35.656Z,5.20
2023-06-10T10:28:05.290Z,5.80
2023-06-10T10:30:35.519Z,5.68
2023-06-10T10:33:09.408Z,5.60
2023-06-10T10:35:37.382Z,5.35
2023-06-10T10:38:04.609Z,6.03
2023-06-10T10:40:31.393Z,5.70
2023-06-10T10:42:59.424Z,5.13
2023-06-10T10:45:28.849Z,5.72
2023-06-10T10:47:58.859Z,6.13
2023-06-10T10:50:25.515Z,5.57
2023-06-10T10:52:57.463Z,6.00
2023-06-10T10:55:24.958Z,6.20
2023-06-10T10:57:57.803Z,6.13
2023-06-10T11:00:45.437Z,5.82
2023-06-10T11:03:20.147Z,5.60
2023-06-10T11:05:49.156Z,5.75
2023-06-10T11:08:16.922Z,5.97
2023-06-10T11:10:53.905Z,5.85
2023-06-10T11:13:21.725Z,5.63
2023-06-10T11:15:51.983Z,5.78
2023-06-10T11:18:27.771Z,5.20
2023-06-10T11:20:56.726Z,6.18
2023-06-10T11:23:29.317Z,5.28
2023-06-10T11:26:22.307Z,5.47
2023-06-10T11:28:48.728Z,5.63
2023-06-10T11:31:20.911Z,5.30
2023-06-10T11:33:49.248Z,5.97
2023-06-10T11:36:15.921Z,5.85
2023-06-10T11:38:42.402Z,5.78
2023-06-10T11:41:08.874Z,5.95
2023-06-10T11:43:35.387Z,5.70
2023-06-10T11:46:03.091Z,5.57
2023-06-10T11:48:31.447Z,6.20
2023-06-10T11:50:58.002Z,5.78
2023-06-10T11:53:24.467Z,6.18
2023-06-10T11:55:52.007Z,5.50
2023-06-10T11:58:23.027Z,5.75
2023-06-10T12:00:51.512Z,6.00
2023-06-10T12:03:18.864Z,5.43
2023-06-10T12:05:59.402Z,5.93
2023-06-10T12:08:26.583Z,5.72
2023-06-10T12:10:53.129Z,5.80
2023-06-10T12:13:19.578Z,6.22
2023-06-10T12:15:46.554Z,5.45
2023-06-10T12:18:20.592Z,5.68
2023-06-10T12:20:47.327Z,5.38
2023-06-10T12:23:14.379Z,5.85
2023-06-10T12:25:41.007Z,4.95
2023-06-10T12:28:11.362Z,5.72
2023-06-10T12:30:37.880Z,5.45
2023-06-10T12:33:04.387Z,5.60
2023-06-10T12:35:30.950Z,5.72
2023-06-10T12:38:02.182Z,5.97
2023-06-10T12:42:57.268Z,5.10
2023-06-10T12:45:30.740Z,5.53
2023-06-10T12:48:10.132Z,5.38
2023-06-10T12:50:40.644Z,5.07
2023-06-10T12:53:07.591Z,6.00
2023-06-10T12:55:34.518Z,5.13
2023-06-10T12:58:02.746Z,4.85
2023-06-10T13:00:32.128Z,4.90
2023-06-10T13:03:02.041Z,5.40
2023-06-10T13:05:29.120Z,5.90
2023-06-10T13:07:55.889Z,5.75
2023-06-10T13:10:25.377Z,5.60
2023-06-10T13:12:53.307Z,5.15
2023-06-10T13:15:19.769Z,4.82
2023-06-10T13:17:52.375Z,4.63
2023-06-10T13:20:19.792Z,4.93
2023-06-10T13:22:46.360Z,5.13
2023-06-10T13:25:13.369Z,5.45
2023-06-10T13:27:40.349Z,4.95
2023-06-10T13:30:09.292Z,5.20
2023-06-10T13:32:36.637Z,5.05
2023-06-10T13:35:05.257Z,5.15
2023-06-10T13:37:32.008Z,5.57
2023-06-10T13:39:58.462Z,5.70
2023-06-10T13:42:27.345Z,5.28
2023-06-10T13:44:53.888Z,5.82
2023-06-10T13:47:20.751Z,5.57
2023-06-10T13:49:47.377Z,6.13
2023-06-10T13:52:13.911Z,5.70
2023-06-10T13:54:40.669Z,5.07
2023-06-10T13:57:07.626Z,6.18
2023-06-10T13:59:34.060Z,5.80
2023-06-10T14:02:01.483Z,5.13
2023-06-10T14:04:28.006Z,6.18
2023-06-10T14:06:54.513Z,5.45
2023-06-10T14:09:21.034Z,5.88
2023-06-10T14:11:48.585Z,6.00
2023-06-10T14:14:15.985Z,5.75
2023-06-10T14:16:43.687Z,5.55
2023-06-10T14:19:10.371Z,5.47
2023-06-10T14:21:36.817Z,5.07
2023-06-10T14:24:03.431Z,5.32
2023-06-10T14:26:30.093Z,5.68
2023-06-10T14:28:56.561Z,6.20
2023-06-10T14:31:23.029Z,5.82
2023-06-10T14:33:50.626Z,5.38
2023-06-10T14:36:17.236Z,5.55
2023-06-10T14:38:43.727Z,5.40
2023-06-10T14:41:10.240Z,5.55
2023-06-10T14:43:36.720Z,6.03
2023-06-10T14:46:03.283Z,5.53
2023-06-10T14:48:29.739Z,5.43
2023-06-10T14:50:56.332Z,6.03
2023-06-10T14:53:22.919Z,5.45
2023-06-10T14:55:49.480Z,5.82
2023-06-10T14:58:15.933Z,5.55
2023-06-10T15:00:42.359Z,6.00
2023-06-10T15:03:08.876Z,5.97
2023-06-10T15:05:35.770Z,5.63
2023-06-10T15:08:02.276Z,5.50
2023-06-10T15:10:28.837Z,5.97
2023-06-10T15:12:57.197Z,5.88
2023-06-10T15:15:24.561Z,5.40
2023-06-10T15:17:51.156Z,5.15
2023-06-10T15:20:17.832Z,5.45
2023-06-10T15:22:44.280Z,4.85
2023-06-10T15:25:21.492Z,5.85
2023-06-10T15:27:56.893Z,5.97
2023-06-10T15:30:23.456Z,6.00
2023-06-10T15:32:49.934Z,5.18
2023-06-10T15:35:16.609Z,5.60
2023-06-10T15:37:43.103Z,5.63
2023-06-10T15:40:09.757Z,5.68
2023-06-10T15:42:36.348Z,5.15
2023-06-10T15:45:02.824Z,5.85
2023-06-10T15:47:29.309Z,5.35
2023-06-10T15:49:55.810Z,5.53
2023-06-10T15:52:22.235Z,5.97
2023-06-10T15:54:48.664Z,5.93
2023-06-10T15:57:15.157Z,6.20
2023-06-10T15:59:41.615Z,5.90
2023-06-10T16:02:08.088Z,5.22
2023-06-10T16:04:34.792Z,5.50
2023-06-10T16:07:01.272Z,5.30
2023-06-10T16:09:27.763Z,5.10
2023-06-10T16:11:54.236Z,6.10
2023-06-10T16:14:20.861Z,5.53
2023-06-10T16:16:47.343Z,5.30
2023-06-10T16:19:13.940Z,5.68
2023-06-10T16:21:41.256Z,5.63
2023-06-10T16:24:11.891Z,4.68
2023-06-10T16:26:38.444Z,5.57
2023-06-10T16:29:04.897Z,5.50
2023-06-10T16:31:31.416Z,6.05
2023-06-10T16:33:57.947Z,5.78
2023-06-10T16:36:24.434Z,5.28
2023-06-10T16:38:51.611Z,5.72
2023-06-10T16:41:18.273Z,4.93
2023-06-10T16:43:44.755Z,5.50
2023-06-10T16:46:11.220Z,5.38
2023-06-10T16:48:37.700Z,5.72
2023-06-10T16:51:04.531Z,5.82
2023-06-10T16:53:30.988Z,6.40
2023-06-10T16:55:57.882Z,5.63
2023-06-10T16:58:25.509Z,6.50
2023-06-10T17:00:52.349Z,6.45
2023-06-10T17:03:18.867Z,5.80
2023-06-10T17:05:45.470Z,5.43
2023-06-10T17:08:11.973Z,5.60
2023-06-10T17:10:38.520Z,5.57
2023-06-10T17:13:04.965Z,5.50
2023-06-10T17:15:31.418Z,6.03
2023-06-10T17:17:57.980Z,6.03
2023-06-10T17:20:24.466Z,5.70
2023-06-10T17:22:51.118Z,6.45
2023-06-10T17:25:17.576Z,6.70
2023-06-10T17:27:44.078Z,6.10
2023-06-10T17:30:10.707Z,6.25
2023-06-10T17:32:38.198Z,6.05
2023-06-10T17:35:05.413Z,5.95
2023-06-10T17:37:31.967Z,6.03
2023-06-10T17:39:58.412Z,6.07
2023-06-10T17:42:24.906Z,8.68
2023-06-10T17:44:51.346Z,6.28
2023-06-10T17:47:17.843Z,6.95
2023-06-10T17:49:44.276Z,7.35
2023-06-10T17:52:10.990Z,7.40
2023-06-10T17:54:37.454Z,6.90
2023-06-10T17:57:04.131Z,6.80
2023-06-10T17:59:30.543Z,6.70
2023-06-10T18:01:57.876Z,7.40
2023-06-10T18:04:24.377Z,7.47
2023-06-10T18:06:50.865Z,6.57
2023-06-10T18:09:17.291Z,6.88
2023-06-10T18:11:43.730Z,7.07
2023-06-10T18:14:10.698Z,7.95
2023-06-10T18:16:37.236Z,13.65
2023-06-10T18:19:03.705Z,8.00
2023-06-10T18:21:30.394Z,7.53
2023-06-10T18:23:58.868Z,6.93
2023-06-10T18:26:25.881Z,7.38
2023-06-10T18:28:52.371Z,7.28
2023-06-10T18:31:18.884Z,7.07
2023-06-10T18:33:45.373Z,6.50
2023-06-10T18:36:11.860Z,7.15
2023-06-10T18:38:38.306Z,7.13
2023-06-10T18:41:04.753Z,8.85
2023-06-10T18:43:31.241Z,7.15
2023-06-10T18:45:58.952Z,6.78
2023-06-10T18:48:25.506Z,6.15
2023-06-10T18:50:52.000Z,7.63
2023-06-10T18:53:18.448Z,7.28
2023-06-10T18:55:44.945Z,6.30
2023-06-10T18:58:11.443Z,6.75
2023-06-10T19:00:37.870Z,7.07
2023-06-10T19:03:04.387Z,7.38
2023-06-10T19:05:31.073Z,7.15
2023-06-10T19:07:57.550Z,6.57
2023-06-10T19:10:24.033Z,6.22
2023-06-10T19:12:50.507Z,6.68
2023-06-10T19:15:16.968Z,7.72
2023-06-10T19:17:43.458Z,7.05
2023-06-10T19:20:11.108Z,6.90
2023-06-10T19:22:37.623Z,6.32
2023-06-10T19:25:06.349Z,6.32
2023-06-10T19:27:33.523Z,6.18
2023-06-10T19:30:01.696Z,6.50
2023-06-10T19:32:28.372Z,6.40
2023-06-10T19:34:54.829Z,6.22
2023-06-10T19:37:21.350Z,6.35
2023-06-10T19:39:47.840Z,6.55
2023-06-10T19:42:15.624Z,6.07
2023-06-10T19:44:42.395Z,5.90
2023-06-10T19:47:09.036Z,6.47
2023-06-10T19:49:35.678Z,6.25
2023-06-10T19:52:07.157Z,6.40
2023-06-10T19:54:34.996Z,6.63
2023-06-10T19:57:04.815Z,7.45
2023-06-10T19:59:31.293Z,7.80
2023-06-10T20:01:57.934Z,7.05
2023-06-10T20:04:24.552Z,7.53
2023-06-10T20:06:51.460Z,6.90
2023-06-10T20:09:17.914Z,7.30
2023-06-10T20:11:44.575Z,6.88
2023-06-10T20:14:11.102Z,6.63
2023-06-10T20:16:37.640Z,6.85
2023-06-10T20:19:04.177Z,7.43
2023-06-10T20:21:30.720Z,7.72
2023-06-10T20:23:57.332Z,8.45
2023-06-10T20:26:24.333Z,7.57
2023-06-10T20:28:51.019Z,7.65
2023-06-10T20:31:17.491Z,7.55
2023-06-10T20:33:43.968Z,6.88
2023-06-10T20:36:10.717Z,6.68
2023-06-10T20:38:37.196Z,7.18
2023-06-10T20:41:03.654Z,8.18
2023-06-10T20:43:30.187Z,8.23
2023-06-10T20:45:57.354Z,8.50
2023-06-10T20:48:23.966Z,9.90
2023-06-10T20:50:50.473Z,8.43
2023-06-10T20:53:17.056Z,7.85
2023-06-10T20:55:43.551Z,7.85
2023-06-10T20:58:10.637Z,7.97
2023-06-10T21:00:37.155Z,8.65
2023-06-10T21:03:03.731Z,7.88
2023-06-10T21:05:30.440Z,7.57
2023-06-10T21:07:56.918Z,7.65
2023-06-10T21:10:23.491Z,8.57
2023-06-10T21:12:50.046Z,7.80
2023-06-10T21:15:17.618Z,7.93
2023-06-10T21:17:44.347Z,8.60
2023-06-10T21:20:11.881Z,8.50
2023-06-10T21:22:38.431Z,8.55
2023-06-10T21:25:05.412Z,7.93
2023-06-10T21:27:31.903Z,8.70
2023-06-10T21:29:58.358Z,8.52
2023-06-10T21:32:25.259Z,8.45
2023-06-10T21:34:51.779Z,8.38
2023-06-10T21:37:18.267Z,8.68
2023-06-10T21:39:44.727Z,9.07
2023-06-10T21:42:11.768Z,8.77
2023-06-10T21:44:38.249Z,9.15
2023-06-10T21:47:04.939Z,9.18
2023-06-10T21:49:31.406Z,9.15
2023-06-10T21:51:57.942Z,8.52
2023-06-10T21:54:24.438Z,8.40
2023-06-10T21:56:51.040Z,9.88
2023-06-10T21:59:19.099Z,9.93
2023-06-10T22:01:45.689Z,10.40
2023-06-10T22:04:12.242Z,9.85
2023-06-10T22:06:38.822Z,9.65
2023-06-10T22:09:05.732Z,9.60
2023-06-10T22:11:32.232Z,9.90
2023-06-10T22:13:58.699Z,10.27
2023-06-10T22:16:25.295Z,10.18
2023-06-10T22:18:51.765Z,9.52
2023-06-10T22:21:18.216Z,10.45
2023-06-10T22:23:44.654Z,9.65
2023-06-10T22:26:11.130Z,9.90
2023-06-10T22:28:37.696Z,9.77
2023-06-10T22:31:04.153Z,9.80
2023-06-10T22:33:30.672Z,9.30
2023-06-10T22:35:57.131Z,10.23
2023-06-10T22:38:23.616Z,9.27
2023-06-10T22:40:50.054Z,10.13
2023-06-10T22:43:16.491Z,10.52
2023-06-10T22:45:42.939Z,10.35
2023-06-10T22:48:09.484Z,10.35
2023-06-10T22:50:36.212Z,9.68
2023-06-10T22:53:02.657Z,10.38
2023-06-10T22:55:29.146Z,11.05
2023-06-10T22:57:55.652Z,10.10
2023-06-10T23:00:22.226Z,10.40
2023-06-10T23:02:48.754Z,10.68
2023-06-10T23:05:15.418Z,10.10
2023-06-10T23:07:41.981Z,10.68
2023-06-10T23:10:08.943Z,10.25
2023-06-10T23:12:36.102Z,10.23
2023-06-10T23:15:03.666Z,10.50
2023-06-10T23:17:30.704Z,10.18
2023-06-10T23:19:59.517Z,10.52
2023-06-10T23:22:26.757Z,10.27
2023-06-10T23:24:57.252Z,10.27
2023-06-10T23:27:23.793Z,10.55
2023-06-10T23:32:20.791Z,10.23
2023-06-10T23:34:47.385Z,10.60
2023-06-10T23:37:14.283Z,9.48
2023-06-10T23:39:45.420Z,9.38
2023-06-10T23:42:12.035Z,10.57
2023-06-10T23:44:38.522Z,10.88
2023-06-10T23:47:05.253Z,11.30
2023-06-10T23:49:31.697Z,11.02
2023-06-10T23:51:58.126Z,11.32
2023-06-10T23:54:24.609Z,11.38
2023-06-10T23:56:51.070Z,10.85
2023-06-10T23:59:17.567Z,10.75
